Time;durP1;ratioP1;P1;durP2;ratioP2;P2;SDS_P1;SDS_P2;PMS_P1;PMS_P2;Temp;Humidity;BMP_temperature;BMP_pressure;BME280_temperature;BME280_humidity;BME280_pressure;Samples;Min_cycle;Max_cycle;Signal;HPM_P1;HPM_P2
2023/06/06 00:02:13;;;;;;;0.00;0.00;;;7.90;99.90;;;;;;5123818;28;20075;-74
2023/06/06 00:04:39;;;;;;;0.00;0.00;;;7.90;99.90;;;;;;5106011;28;20054;-74
2023/06/06 00:07:08;;;;;;;0.00;0.00;;;7.90;99.90;;;;;;5124123;28;20054;-74
2023/06/06 00:09:34;;;;;;;0.00;0.00;;;7.80;99.90;;;;;;5124029;28;20047;-73
2023/06/06 00:12:00;;;;;;;0.15;0.13;;;7.80;99.90;;;;;;5123441;28;20059;-73
2023/06/06 00:14:27;;;;;;;1.10;0.85;;;7.90;99.90;;;;;;5123777;27;20031;-73
2023/06/06 00:16:55;;;;;;;0.10;0.10;;;7.90;99.90;;;;;;5125441;27;20086;-73
2023/06/06 00:19:22;;;;;;;0.17;0.17;;;7.90;99.90;;;;;;5148484;27;20477;-74
2023/06/06 00:21:48;;;;;;;0.70;0.40;;;7.90;99.90;;;;;;5148350;27;20058;-73
2023/06/06 00:24:15;;;;;;;0.55;0.55;;;7.80;99.90;;;;;;5148216;27;20046;-74
2023/06/06 00:26:41;;;;;;;0.00;0.00;;;7.80;99.90;;;;;;5149101;27;20047;-75
2023/06/06 00:29:07;;;;;;;0.00;0.00;;;7.80;99.90;;;;;;5127918;27;20584;-74
2023/06/06 00:31:32;;;;;;;0.13;0.10;;;7.80;99.90;;;;;;5128406;27;20043;-73
2023/06/06 00:33:58;;;;;;;0.13;0.13;;;7.70;99.90;;;;;;5127358;27;20058;-73
2023/06/06 00:36:23;;;;;;;0.05;0.05;;;7.70;99.90;;;;;;5148484;27;20102;-73
2023/06/06 00:38:50;;;;;;;0.25;0.25;;;7.70;99.90;;;;;;5130798;27;20043;-73
2023/06/06 00:41:16;;;;;;;1.02;0.65;;;7.60;99.90;;;;;;5128276;27;20080;-74
2023/06/06 00:43:43;;;;;;;0.10;0.10;;;7.60;99.90;;;;;;5127678;27;20407;-73
2023/06/06 00:46:08;;;;;;;0.00;0.00;;;7.50;99.90;;;;;;5127984;27;20047;-74
2023/06/06 00:48:34;;;;;;;0.00;0.00;;;7.50;99.90;;;;;;5141799;27;20052;-74
2023/06/06 00:51:00;;;;;;;0.10;0.10;;;7.60;99.90;;;;;;5147627;27;20039;-73
2023/06/06 00:53:25;;;;;;;0.10;0.10;;;7.50;99.90;;;;;;5147750;27;20078;-73
2023/06/06 00:55:52;;;;;;;0.35;0.25;;;7.60;99.90;;;;;;5132687;27;20062;-73
2023/06/06 00:58:18;;;;;;;2.40;0.57;;;7.60;99.90;;;;;;5126790;27;20047;-73
2023/06/06 01:00:46;;;;;;;0.00;0.00;;;7.60;99.90;;;;;;5127216;27;20047;-74
2023/06/06 01:03:14;;;;;;;0.15;0.15;;;7.50;99.90;;;;;;5127013;27;20046;-73
2023/06/06 01:05:40;;;;;;;0.30;0.20;;;7.50;99.90;;;;;;5139135;27;20047;-74
2023/06/06 01:08:07;;;;;;;0.40;0.38;;;7.60;99.90;;;;;;5129619;27;20510;-74
2023/06/06 01:10:37;;;;;;;0.10;0.10;;;7.50;99.90;;;;;;5147909;27;20127;-74
2023/06/06 01:13:33;;;;;;;0.13;0.05;;;7.50;99.90;;;;;;5147425;27;20084;-74
2023/06/06 01:16:05;;;;;;;0.10;0.10;;;7.50;99.90;;;;;;5132673;27;20043;-74
2023/06/06 01:18:31;;;;;;;0.35;0.35;;;7.50;99.90;;;;;;5126631;27;20083;-73
2023/06/06 01:20:58;;;;;;;0.22;0.22;;;7.50;99.90;;;;;;5126722;27;20039;-74
2023/06/06 01:23:27;;;;;;;0.10;0.10;;;7.60;99.90;;;;;;5120489;27;20035;-74
2023/06/06 01:25:53;;;;;;;1.70;0.52;;;7.70;99.90;;;;;;5139840;27;20481;-73
2023/06/06 01:28:19;;;;;;;0.00;0.00;;;7.60;99.90;;;;;;5146792;27;20065;-74
2023/06/06 01:30:45;;;;;;;0.00;0.00;;;7.60;99.90;;;;;;5147173;27;20088;-74
2023/06/06 01:33:26;;;;;;;0.47;0.47;;;7.60;99.90;;;;;;5144759;27;20079;-73
2023/06/06 01:36:13;;;;;;;2.17;0.63;;;7.60;99.90;;;;;;5139327;27;21105;-73
2023/06/06 01:38:44;;;;;;;0.00;0.00;;;7.80;99.90;;;;;;5147076;27;20489;-73
2023/06/06 01:41:12;;;;;;;0.15;0.15;;;7.90;99.90;;;;;;5147007;27;20050;-73
2023/06/06 01:43:40;;;;;;;0.00;0.00;;;7.90;99.90;;;;;;5140792;27;20111;-73
2023/06/06 01:46:08;;;;;;;1.85;0.20;;;7.90;99.90;;;;;;5126148;27;20069;-73
2023/06/06 01:48:34;;;;;;;0.15;0.15;;;7.90;99.90;;;;;;5126372;27;20085;-74
2023/06/06 01:51:00;;;;;;;1.65;0.88;;;8.00;99.90;;;;;;5126609;27;20035;-72
2023/06/06 01:53:25;;;;;;;0.30;0.25;;;8.00;99.90;;;;;;5125544;27;20115;-73
2023/06/06 01:55:51;;;;;;;0.55;0.15;;;8.10;99.90;;;;;;5138049;27;20069;-74
2023/06/06 01:58:18;;;;;;;1.65;0.60;;;8.20;99.90;;;;;;5137075;27;20091;-74
2023/06/06 02:00:44;;;;;;;0.77;0.77;;;8.40;99.90;;;;;;5126338;27;20495;-73
2023/06/06 02:03:11;;;;;;;2.72;1.35;;;8.40;99.90;;;;;;5125915;27;20121;-73
2023/06/06 02:05:37;;;;;;;0.00;0.00;;;8.50;99.90;;;;;;5126603;27;20070;-73
2023/06/06 02:08:03;;;;;;;0.90;0.82;;;8.40;99.90;;;;;;5126002;27;20442;-74
2023/06/06 02:10:29;;;;;;;0.00;0.00;;;8.40;99.90;;;;;;5128882;27;20129;-73
2023/06/06 02:12:54;;;;;;;0.00;0.00;;;8.30;99.90;;;;;;5146048;27;20057;-74
2023/06/06 02:15:21;;;;;;;0.10;0.10;;;8.30;99.90;;;;;;5146222;27;20050;-74
2023/06/06 02:17:46;;;;;;;0.05;0.05;;;8.40;99.90;;;;;;5141876;27;20046;-74
2023/06/06 02:20:12;;;;;;;0.10;0.10;;;8.40;99.90;;;;;;5125207;27;20047;-73
2023/06/06 02:22:39;;;;;;;0.00;0.00;;;8.30;99.90;;;;;;5125777;27;20073;-74
2023/06/06 02:25:05;;;;;;;0.00;0.00;;;8.30;99.90;;;;;;5125637;27;20035;-73
2023/06/06 02:27:34;;;;;;;0.40;0.40;;;8.30;99.90;;;;;;5124988;27;20572;-73
2023/06/06 02:30:03;;;;;;;0.10;0.10;;;8.30;99.90;;;;;;5125010;27;20062;-74
2023/06/06 02:32:30;;;;;;;0.10;0.10;;;8.30;99.90;;;;;;5125695;27;20054;-74
2023/06/06 02:34:57;;;;;;;0.10;0.10;;;8.30;99.90;;;;;;5125125;27;20065;-74
2023/06/06 02:37:23;;;;;;;0.65;0.55;;;8.40;99.90;;;;;;5139114;27;20065;-74
2023/06/06 02:39:49;;;;;;;0.40;0.40;;;8.30;99.90;;;;;;5145336;27;20046;-74
2023/06/06 02:42:14;;;;;;;0.60;0.22;;;8.30;99.90;;;;;;5128533;27;20043;-74
2023/06/06 02:44:40;;;;;;;2.10;0.50;;;8.20;99.90;;;;;;5125152;27;20485;-73
2023/06/06 02:47:06;;;;;;;0.40;0.40;;;8.20;99.90;;;;;;5136009;27;20045;-74
2023/06/06 02:49:32;;;;;;;2.65;0.50;;;8.20;99.90;;;;;;5145631;27;20043;-73
2023/06/06 02:51:58;;;;;;;1.17;0.77;;;8.10;99.90;;;;;;5145359;27;20046;-73
2023/06/06 02:54:23;;;;;;;2.25;1.20;;;8.00;99.90;;;;;;5145266;27;20039;-73
2023/06/06 02:56:49;;;;;;;0.35;0.35;;;8.00;99.90;;;;;;5137295;27;20051;-73
2023/06/06 02:59:15;;;;;;;0.28;0.20;;;7.80;99.90;;;;;;5125011;27;20039;-74
2023/06/06 03:01:44;;;;;;;0.17;0.17;;;7.70;99.90;;;;;;5124707;27;20051;-73
2023/06/06 03:04:14;;;;;;;0.00;0.00;;;7.80;99.90;;;;;;5124756;27;20047;-74
2023/06/06 03:06:40;;;;;;;0.15;0.15;;;7.90;99.90;;;;;;5124776;27;20490;-74
2023/06/06 03:09:07;;;;;;;0.00;0.00;;;7.80;99.90;;;;;;5124868;27;20097;-73
2023/06/06 03:11:34;;;;;;;0.10;0.10;;;7.90;99.90;;;;;;5131259;27;20050;-74
2023/06/06 03:14:00;;;;;;;0.40;0.38;;;8.10;99.90;;;;;;5145150;27;20107;-74
2023/06/06 03:16:26;;;;;;;0.10;0.10;;;8.10;99.90;;;;;;5142096;27;20561;-74
2023/06/06 03:18:55;;;;;;;0.47;0.47;;;8.10;99.90;;;;;;5124227;27;20039;-73
2023/06/06 03:21:21;;;;;;;0.75;0.73;;;8.10;99.90;;;;;;5124737;27;20044;-74
2023/06/06 03:23:47;;;;;;;0.70;0.50;;;8.20;99.90;;;;;;5124339;27;20039;-74
2023/06/06 03:26:13;;;;;;;0.80;0.80;;;8.20;99.90;;;;;;5125402;27;20106;-74
2023/06/06 03:28:39;;;;;;;0.10;0.10;;;8.30;99.90;;;;;;5145217;27;20054;-74
2023/06/06 03:31:06;;;;;;;0.85;0.70;;;8.30;99.90;;;;;;5138328;27;20039;-74
2023/06/06 03:33:32;;;;;;;0.45;0.45;;;8.30;99.90;;;;;;5125033;28;20058;-75
2023/06/06 03:35:59;;;;;;;2.03;1.33;;;8.30;99.90;;;;;;5125097;28;20051;-74
2023/06/06 03:38:24;;;;;;;0.30;0.30;;;8.30;99.90;;;;;;5125687;28;20043;-74
2023/06/06 03:40:50;;;;;;;0.73;0.47;;;8.40;99.90;;;;;;5129630;27;20050;-74
2023/06/06 03:43:15;;;;;;;0.55;0.55;;;8.40;99.90;;;;;;5138055;27;20039;-75
2023/06/06 03:45:41;;;;;;;0.05;0.05;;;8.50;99.90;;;;;;5145248;27;20039;-74
2023/06/06 03:48:09;;;;;;;0.65;0.65;;;8.50;99.90;;;;;;5144861;27;20047;-74
2023/06/06 03:50:35;;;;;;;0.65;0.30;;;8.60;99.90;;;;;;5145091;27;20090;-74
2023/06/06 03:53:01;;;;;;;0.13;0.13;;;8.70;99.90;;;;;;5142314;27;20932;-74
2023/06/06 03:55:28;;;;;;;1.30;1.08;;;8.70;99.90;;;;;;5128978;27;20148;-74
2023/06/06 03:57:54;;;;;;;0.10;0.10;;;8.80;99.90;;;;;;5110080;27;20113;-76
2023/06/06 04:00:20;;;;;;;0.57;0.45;;;8.80;99.90;;;;;;5127936;27;20046;-74
2023/06/06 04:02:49;;;;;;;1.17;0.57;;;8.90;99.90;;;;;;5131692;27;20038;-74
2023/06/06 04:05:18;;;;;;;0.08;0.08;;;8.90;99.90;;;;;;5148868;27;20051;-74
2023/06/06 04:07:44;;;;;;;0.40;0.40;;;8.90;99.90;;;;;;5148972;27;20572;-74
2023/06/06 04:10:10;;;;;;;0.90;0.85;;;9.00;99.90;;;;;;5148494;27;20154;-74
2023/06/06 04:12:38;;;;;;;0.15;0.08;;;9.10;99.90;;;;;;5146351;27;20416;-75
2023/06/06 04:15:04;;;;;;;0.85;0.70;;;9.10;99.90;;;;;;5128378;27;20397;-75
2023/06/06 04:17:29;;;;;;;0.20;0.20;;;9.20;99.90;;;;;;5134940;27;20069;-75
2023/06/06 04:19:55;;;;;;;0.10;0.10;;;9.20;99.90;;;;;;5149226;27;20039;-74
2023/06/06 04:22:22;;;;;;;1.02;0.60;;;9.30;99.90;;;;;;5148543;27;20047;-74
2023/06/06 04:24:48;;;;;;;1.48;1.02;;;9.40;99.90;;;;;;5128083;27;20043;-75
2023/06/06 04:27:16;;;;;;;0.22;0.20;;;9.50;99.90;;;;;;5127738;27;20050;-75
2023/06/06 04:29:42;;;;;;;1.20;0.32;;;9.60;99.90;;;;;;5128164;27;20062;-74
2023/06/06 04:32:08;;;;;;;0.10;0.00;;;9.60;99.90;;;;;;5127860;27;20079;-74
2023/06/06 04:34:40;;;;;;;0.35;0.30;;;9.80;99.90;;;;;;5127370;27;20038;-74
2023/06/06 04:37:07;;;;;;;0.00;0.00;;;10.00;99.90;;;;;;5127811;27;20148;-74
2023/06/06 04:39:38;;;;;;;0.45;0.43;;;10.10;99.90;;;;;;5127630;27;20118;-74
2023/06/06 04:42:06;;;;;;;0.10;0.10;;;10.10;99.90;;;;;;5127783;27;20092;-74
2023/06/06 04:44:45;;;;;;;0.00;0.00;;;10.30;99.90;;;;;;5145502;27;20068;-74
2023/06/06 04:47:12;;;;;;;3.20;0.95;;;10.50;99.90;;;;;;5147968;27;20039;-74
2023/06/06 04:49:40;;;;;;;0.88;0.43;;;10.90;99.90;;;;;;5147887;27;20046;-75
2023/06/06 04:52:06;;;;;;;0.45;0.40;;;11.50;99.90;;;;;;5148769;27;20491;-74
2023/06/06 04:54:39;;;;;;;0.08;0.08;;;11.80;99.90;;;;;;5130462;27;20070;-77
2023/06/06 04:57:07;;;;;;;0.80;0.70;;;12.30;99.90;;;;;;5127527;27;20039;-74
2023/06/06 04:59:33;;;;;;;0.95;0.52;;;12.70;99.90;;;;;;5126926;27;20490;-75
2023/06/06 05:02:01;;;;;;;0.10;0.10;;;13.20;99.90;;;;;;5127073;27;20154;-74
2023/06/06 05:04:29;;;;;;;0.22;0.20;;;13.60;99.90;;;;;;5124787;27;20046;-75
2023/06/06 05:06:56;;;;;;;1.13;0.63;;;13.80;99.90;;;;;;5125089;27;20086;-75
2023/06/06 05:09:21;;;;;;;1.30;0.20;;;14.10;99.90;;;;;;5125210;27;20300;-75
2023/06/06 05:11:49;;;;;;;0.70;0.68;;;14.50;99.90;;;;;;5124647;27;20497;-77
2023/06/06 05:14:15;;;;;;;0.17;0.17;;;14.90;99.90;;;;;;5138100;27;20046;-75
2023/06/06 05:16:42;;;;;;;0.20;0.20;;;15.20;99.90;;;;;;5145335;27;20035;-75
2023/06/06 05:19:07;;;;;;;3.03;0.77;;;15.50;99.90;;;;;;5131830;27;20473;-74
2023/06/06 05:21:34;;;;;;;1.08;0.45;;;15.70;28.60;;;;;;5125226;27;20087;-75
2023/06/06 05:24:00;;;;;;;0.22;0.17;;;15.90;99.90;;;;;;5133100;27;20047;-75
2023/06/06 05:26:25;;;;;;;0.73;0.57;;;16.20;1.00;;;;;;5124554;27;20501;-75
2023/06/06 05:28:51;;;;;;;0.20;0.20;;;16.30;99.90;;;;;;5124326;27;20073;-75
2023/06/06 05:31:20;;;;;;;0.30;0.20;;;16.50;99.90;;;;;;5124295;27;20142;-75
2023/06/06 05:33:46;;;;;;;0.50;0.50;;;16.40;99.90;;;;;;5124525;27;20457;-75
2023/06/06 05:36:12;;;;;;;0.70;0.70;;;16.40;99.90;;;;;;5126500;27;20055;-75
2023/06/06 05:38:38;;;;;;;2.28;1.50;;;16.20;1.00;;;;;;5126492;27;20043;-75
2023/06/06 05:41:03;;;;;;;0.52;0.40;;;16.40;1.00;;;;;;5126664;27;20142;-75
2023/06/06 05:43:31;;;;;;;1.45;0.75;;;16.70;99.90;;;;;;5126830;27;20086;-75
2023/06/06 05:45:57;;;;;;;0.03;0.03;;;16.50;99.90;;;;;;5126718;27;20051;-75
2023/06/06 05:48:22;;;;;;;0.47;0.40;;;16.30;99.90;;;;;;5126744;27;20039;-75
2023/06/06 05:50:48;;;;;;;0.75;0.52;;;16.30;99.90;;;;;;5125878;27;20050;-75
2023/06/06 05:53:14;;;;;;;1.80;0.40;;;16.70;99.90;;;;;;5124581;27;20039;-75
2023/06/06 05:55:39;;;;;;;21.67;2.20;;;16.70;99.90;;;;;;5124651;27;20039;-75
2023/06/06 05:58:05;;;;;;;0.10;0.10;;;16.90;37.40;;;;;;5124696;27;20074;-75
2023/06/06 06:00:33;;;;;;;0.10;0.10;;;17.00;1.00;;;;;;5124447;27;20081;-75
2023/06/06 06:03:00;;;;;;;0.45;0.38;;;17.20;54.10;;;;;;5106193;27;20504;-75
2023/06/06 06:05:30;;;;;;;0.05;0.03;;;16.80;99.90;;;;;;5124679;27;20082;-75
2023/06/06 06:08:01;;;;;;;0.10;0.10;;;17.30;1.00;;;;;;5124477;27;20054;-75
2023/06/06 06:10:31;;;;;;;5.18;0.73;;;17.90;99.90;;;;;;5124233;27;20047;-75
2023/06/06 06:12:57;;;;;;;0.22;0.22;;;18.40;1.00;;;;;;5123850;27;20043;-75
2023/06/06 06:15:23;;;;;;;0.70;0.15;;;18.60;1.00;;;;;;5123875;27;20058;-75
2023/06/06 06:17:49;;;;;;;0.52;0.40;;;18.70;99.90;;;;;;5123857;27;20047;-75
2023/06/06 06:20:16;;;;;;;0.13;0.13;;;18.70;99.90;;;;;;5124106;27;20130;-75
2023/06/06 06:22:43;;;;;;;1.58;0.77;;;19.20;99.90;;;;;;5123715;27;20051;-75
2023/06/06 06:25:13;;;;;;;0.03;0.03;;;19.00;99.90;;;;;;5123798;27;20049;-75
2023/06/06 06:27:42;;;;;;;0.00;0.00;;;19.00;99.90;;;;;;5123665;27;20047;-75
2023/06/06 06:30:09;;;;;;;1.35;0.50;;;18.80;99.90;;;;;;5124349;27;20047;-75
2023/06/06 06:32:37;;;;;;;7.72;0.52;;;18.70;99.90;;;;;;5123864;27;20126;-75
2023/06/06 06:35:04;;;;;;;0.40;0.32;;;19.50;99.90;;;;;;5123798;27;20046;-75
2023/06/06 06:37:31;;;;;;;0.77;0.57;;;19.70;83.70;;;;;;5123567;27;20419;-75
2023/06/06 06:39:57;;;;;;;0.50;0.43;;;19.80;99.90;;;;;;5123369;27;20532;-75
2023/06/06 06:42:23;;;;;;;0.28;0.20;;;19.90;91.60;;;;;;5123867;27;20135;-75
2023/06/06 06:44:50;;;;;;;1.30;0.70;;;20.20;69.60;;;;;;5105032;27;20054;-75
2023/06/06 06:47:16;;;;;;;0.03;0.03;;;20.30;1.00;;;;;;5121371;27;20089;-75
2023/06/06 06:49:42;;;;;;;3.63;1.40;;;20.50;1.00;;;;;;5121136;27;20096;-75
2023/06/06 06:52:11;;;;;;;2.53;1.42;;;20.70;1.00;;;;;;5120095;27;20047;-75
2023/06/06 06:54:46;;;;;;;1.25;0.80;;;20.80;1.00;;;;;;5119954;27;20116;-75
2023/06/06 06:57:12;;;;;;;1.15;0.65;;;20.90;1.00;;;;;;5120651;27;20051;-75
2023/06/06 06:59:38;;;;;;;1.80;0.70;;;21.80;1.00;;;;;;5120745;27;20051;-75
2023/06/06 07:02:05;;;;;;;0.38;0.30;;;21.90;1.00;;;;;;5120779;27;20049;-75
2023/06/06 07:04:30;;;;;;;0.85;0.38;;;22.20;1.00;;;;;;5120357;27;20050;-75
2023/06/06 07:06:56;;;;;;;0.25;0.20;;;22.10;1.00;;;;;;5120233;27;20039;-75
2023/06/06 07:09:22;;;;;;;0.63;0.50;;;21.50;99.90;;;;;;5120398;27;20074;-75
2023/06/06 07:11:48;;;;;;;2.25;0.60;;;21.50;99.90;;;;;;5120721;27;20117;-75
2023/06/06 07:14:13;;;;;;;1.80;0.75;;;21.50;1.00;;;;;;5120355;27;20062;-75
2023/06/06 07:16:39;;;;;;;0.68;0.63;;;21.70;99.90;;;;;;5120531;27;20039;-75
2023/06/06 07:19:05;;;;;;;2.60;1.15;;;22.20;1.00;;;;;;5120368;27;20058;-75
2023/06/06 07:21:30;;;;;;;0.43;0.30;;;22.00;99.90;;;;;;5120385;27;20546;-75
2023/06/06 07:23:56;;;;;;;0.00;0.00;;;22.80;1.00;;;;;;5120639;27;20287;-75
2023/06/06 07:26:22;;;;;;;0.00;0.00;;;23.10;1.00;;;;;;5119717;27;20138;-75
2023/06/06 07:28:48;;;;;;;3.65;1.15;;;23.20;99.90;;;;;;5120381;27;20047;-75
2023/06/06 07:31:14;;;;;;;0.08;0.08;;;23.10;99.90;;;;;;5101793;28;20047;-75
2023/06/06 07:33:40;;;;;;;1.02;0.55;;;23.00;99.90;;;;;;5120572;27;20100;-75
2023/06/06 07:36:07;;;;;;;11.73;0.75;;;22.60;99.90;;;;;;5120422;28;20051;-75
2023/06/06 07:38:33;;;;;;;2.20;0.32;;;22.40;99.90;;;;;;5119833;28;20186;-75
2023/06/06 07:40:59;;;;;;;1.30;0.85;;;22.80;99.90;;;;;;5120061;28;20079;-75
2023/06/06 07:43:24;;;;;;;3.10;1.20;;;22.50;99.90;;;;;;5120616;28;20062;-75
2023/06/06 07:45:50;;;;;;;0.45;0.25;;;22.20;99.90;;;;;;5120070;28;20121;-75
2023/06/06 07:48:16;;;;;;;1.13;0.40;;;22.90;99.90;;;;;;5120002;28;20054;-75
2023/06/06 07:50:42;;;;;;;0.30;0.30;;;23.00;99.90;;;;;;5119992;28;20081;-75
2023/06/06 07:53:08;;;;;;;0.20;0.17;;;22.30;99.90;;;;;;5119778;28;20508;-75
2023/06/06 07:55:35;;;;;;;1.13;0.40;;;23.20;99.90;;;;;;5119970;28;20496;-75
2023/06/06 07:58:01;;;;;;;0.40;0.40;;;22.80;99.90;;;;;;5120075;28;20143;-75
2023/06/06 08:00:27;;;;;;;0.10;0.10;;;23.10;99.90;;;;;;5119819;28;20486;-75
2023/06/06 08:02:53;;;;;;;0.28;0.28;;;23.30;99.90;;;;;;5119975;27;20637;-75
2023/06/06 08:05:19;;;;;;;0.80;0.43;;;23.20;99.90;;;;;;5117923;28;20616;-75
2023/06/06 08:07:44;;;;;;;0.30;0.28;;;23.40;99.90;;;;;;5118397;28;20042;-75
2023/06/06 08:10:11;;;;;;;1.75;0.90;;;23.80;99.90;;;;;;5119911;28;20089;-75
2023/06/06 08:12:37;;;;;;;1.75;0.60;;;23.70;99.90;;;;;;5120124;28;20063;-75
2023/06/06 08:15:07;;;;;;;0.32;0.30;;;23.40;99.90;;;;;;5120004;28;20516;-75
2023/06/06 08:17:33;;;;;;;6.60;0.55;;;23.60;99.90;;;;;;5119989;28;20117;-75
2023/06/06 08:19:59;;;;;;;0.98;0.63;;;23.80;99.90;;;;;;5120026;28;20066;-75
2023/06/06 08:22:27;;;;;;;1.08;0.47;;;24.40;99.90;;;;;;5119912;28;20047;-75
2023/06/06 08:24:53;;;;;;;2.17;1.00;;;23.50;99.90;;;;;;5120268;28;20043;-75
2023/06/06 08:27:18;;;;;;;0.30;0.30;;;22.70;99.90;;;;;;5101334;28;20039;-75
2023/06/06 08:29:44;;;;;;;0.20;0.20;;;23.10;99.90;;;;;;5119723;28;20100;-75
2023/06/06 08:32:12;;;;;;;0.85;0.43;;;22.90;99.90;;;;;;5119608;28;20596;-75
2023/06/06 08:34:37;;;;;;;1.98;1.20;;;23.30;99.90;;;;;;5119417;28;20085;-75
2023/06/06 08:37:03;;;;;;;0.47;0.47;;;23.20;99.90;;;;;;5119494;28;20070;-74
2023/06/06 08:39:29;;;;;;;1.45;0.35;;;23.80;99.90;;;;;;5122720;27;20109;-75
2023/06/06 08:41:56;;;;;;;0.30;0.10;;;23.80;99.90;;;;;;5104950;27;20058;-75
2023/06/06 08:44:23;;;;;;;2.30;0.95;;;24.20;99.90;;;;;;5123184;27;20127;-75
2023/06/06 08:46:59;;;;;;;0.10;0.10;;;24.30;99.90;;;;;;5123281;27;20043;-75
2023/06/06 08:49:28;;;;;;;0.80;0.50;;;24.00;99.90;;;;;;5123299;27;20073;-75
2023/06/06 08:51:55;;;;;;;0.80;0.52;;;23.90;99.90;;;;;;5123471;27;20047;-75
2023/06/06 08:54:20;;;;;;;0.70;0.70;;;24.80;99.90;;;;;;5123174;27;20054;-75
2023/06/06 08:56:47;;;;;;;5.03;1.17;;;25.30;99.90;;;;;;5123186;27;20043;-75
2023/06/06 08:59:14;;;;;;;2.85;1.23;;;24.60;99.90;;;;;;5123188;27;20118;-75
2023/06/06 09:01:40;;;;;;;0.15;0.13;;;24.60;99.90;;;;;;5122700;27;20159;-75
2023/06/06 09:04:07;;;;;;;1.30;0.85;;;24.80;99.90;;;;;;5125082;27;20088;-74
2023/06/06 09:06:43;;;;;;;0.00;0.00;;;24.90;99.90;;;;;;5125405;27;20122;-74
2023/06/06 09:09:09;;;;;;;2.50;0.75;;;25.30;99.90;;;;;;5124995;27;20051;-75
2023/06/06 09:11:35;;;;;;;0.20;0.10;;;25.10;99.90;;;;;;5125372;27;20105;-74
2023/06/06 09:14:02;;;;;;;0.68;0.60;;;25.10;99.90;;;;;;5124926;27;20085;-75
2023/06/06 09:16:28;;;;;;;0.35;0.35;;;25.40;99.90;;;;;;5124989;27;20062;-75
2023/06/06 09:18:57;;;;;;;0.20;0.20;;;25.20;99.90;;;;;;5125272;27;20148;-75
2023/06/06 09:21:26;;;;;;;0.00;0.00;;;25.40;99.90;;;;;;5125168;27;20486;-75
2023/06/06 09:23:53;;;;;;;1.20;0.90;;;25.80;99.90;;;;;;5125060;27;20073;-75
2023/06/06 09:26:20;;;;;;;0.20;0.20;;;25.40;99.90;;;;;;5125077;27;20489;-75
2023/06/06 09:28:46;;;;;;;0.00;0.00;;;25.40;99.90;;;;;;5125039;27;20736;-74
2023/06/06 09:31:30;;;;;;;0.22;0.20;;;25.50;99.90;;;;;;5124663;27;20054;-75
2023/06/06 09:33:57;;;;;;;0.38;0.38;;;25.70;99.90;;;;;;5125027;27;20082;-75
2023/06/06 09:36:25;;;;;;;0.30;0.30;;;25.70;99.90;;;;;;5124812;27;20169;-75
2023/06/06 09:38:55;;;;;;;0.55;0.28;;;26.00;99.90;;;;;;5124688;27;20043;-75
2023/06/06 09:41:25;;;;;;;1.05;0.47;;;26.10;99.90;;;;;;5124568;27;20468;-75
2023/06/06 09:43:51;;;;;;;0.28;0.28;;;26.40;99.90;;;;;;5124771;27;20087;-75
2023/06/06 09:46:19;;;;;;;0.38;0.38;;;25.80;99.90;;;;;;5124887;27;20118;-75
2023/06/06 09:49:05;;;;;;;1.10;1.00;;;25.70;99.90;;;;;;5124574;27;20412;-75
2023/06/06 09:51:31;;;;;;;;;;;25.40;99.90;;;;;;5124195;27;20059;-75
2023/06/06 09:53:57;;;;;;;;;;;25.10;99.90;;;;;;5125055;27;20006;-75
2023/06/06 09:56:24;;;;;;;0.82;0.43;;;24.50;99.90;;;;;;5124993;27;19923;-74
2023/06/06 09:58:55;;;;;;;3.15;0.60;;;24.30;99.90;;;;;;5106436;27;20493;-74
2023/06/06 10:01:31;;;;;;;2.42;1.17;;;24.70;99.90;;;;;;5124590;27;20069;-74
2023/06/06 10:03:57;;;;;;;0.25;0.25;;;24.60;99.90;;;;;;5124564;27;20928;-75
2023/06/06 10:06:28;;;;;;;0.47;0.43;;;24.30;99.90;;;;;;5124618;27;20047;-75
2023/06/06 10:08:55;;;;;;;0.75;0.57;;;24.00;99.90;;;;;;5124866;27;20043;-75
2023/06/06 10:11:21;;;;;;;0.55;0.40;;;24.20;99.90;;;;;;5124115;27;20886;-75
2023/06/06 10:13:49;;;;;;;0.70;0.38;;;24.30;99.90;;;;;;5124032;27;20457;-75
2023/06/06 10:16:17;;;;;;;0.85;0.70;;;23.40;99.90;;;;;;5123881;27;20083;-74
2023/06/06 10:18:46;;;;;;;0.98;0.57;;;23.40;99.90;;;;;;5123589;27;20066;-75
2023/06/06 10:21:14;;;;;;;0.55;0.47;;;23.60;99.90;;;;;;5123957;27;20410;-75
2023/06/06 10:23:40;;;;;;;0.98;0.88;;;23.20;99.90;;;;;;5123725;27;20499;-74
2023/06/06 10:26:13;;;;;;;0.25;0.25;;;23.10;99.90;;;;;;5123675;27;20494;-74
2023/06/06 10:28:47;;;;;;;0.00;0.00;;;23.00;99.90;;;;;;5105340;27;20051;-74
2023/06/06 10:31:31;;;;;;;1.75;0.43;;;22.80;99.90;;;;;;5105340;27;20081;-74
2023/06/06 10:34:02;;;;;;;0.60;0.52;;;22.90;99.90;;;;;;5124140;27;20409;-75
2023/06/06 10:36:38;;;;;;;0.95;0.57;;;22.80;99.90;;;;;;5123790;27;20115;-75
2023/06/06 10:39:24;;;;;;;3.22;1.23;;;23.00;99.90;;;;;;5123937;27;20046;-75
2023/06/06 10:41:51;;;;;;;1.15;0.77;;;23.30;99.90;;;;;;5123705;27;20408;-75
2023/06/06 10:44:41;;;;;;;0.73;0.63;;;23.40;99.90;;;;;;5123744;27;20082;-74
2023/06/06 10:47:32;;;;;;;2.22;1.52;;;23.20;99.90;;;;;;5123639;27;20047;-74
2023/06/06 10:50:12;;;;;;;0.73;0.73;;;23.00;99.90;;;;;;5123303;27;20497;-75
2023/06/06 10:52:49;;;;;;;0.98;0.73;;;23.20;99.90;;;;;;5124091;27;20512;-74
2023/06/06 10:55:34;;;;;;;0.13;0.13;;;23.00;99.90;;;;;;5124263;27;20414;-74
2023/06/06 10:58:03;;;;;;;0.60;0.40;;;22.80;99.90;;;;;;5124385;27;20055;-74
2023/06/06 11:00:32;;;;;;;0.70;0.70;;;22.90;99.90;;;;;;5124081;27;20051;-74
2023/06/06 11:03:07;;;;;;;0.50;0.50;;;23.10;99.90;;;;;;5124103;27;20100;-75
2023/06/06 11:05:41;;;;;;;6.45;1.85;;;23.10;99.90;;;;;;5123376;27;20058;-75
2023/06/06 11:08:08;;;;;;;2.63;0.63;;;23.30;99.90;;;;;;5129292;27;20057;-74
2023/06/06 11:10:46;;;;;;;0.30;0.30;;;23.50;99.90;;;;;;5143703;27;20464;-74
2023/06/06 11:13:25;;;;;;;0.45;0.30;;;23.50;99.90;;;;;;5111332;27;20472;-75
2023/06/06 11:15:57;;;;;;;1.55;0.95;;;23.70;99.90;;;;;;5123303;27;20054;-75
2023/06/06 11:18:41;;;;;;;3.38;1.73;;;23.60;99.90;;;;;;5122899;27;20043;-75
2023/06/06 11:21:07;;;;;;;0.77;0.57;;;23.10;99.90;;;;;;5122842;27;20078;-75
2023/06/06 11:23:42;;;;;;;0.60;0.60;;;23.20;99.90;;;;;;5122970;27;20093;-74
2023/06/06 11:26:09;;;;;;;0.30;0.30;;;23.20;99.90;;;;;;5122990;27;20517;-74
2023/06/06 11:28:36;;;;;;;1.02;0.85;;;23.50;99.90;;;;;;5122591;27;20454;-75
2023/06/06 11:31:02;;;;;;;0.90;0.73;;;23.50;99.90;;;;;;5122939;27;20516;-74
2023/06/06 11:33:28;;;;;;;0.77;0.60;;;23.90;99.90;;;;;;5123021;27;20455;-75
2023/06/06 11:35:55;;;;;;;1.17;0.88;;;24.20;99.90;;;;;;5122902;28;20090;-75
2023/06/06 11:38:21;;;;;;;0.88;0.65;;;24.40;99.90;;;;;;5122697;27;20401;-75
2023/06/06 11:40:47;;;;;;;0.47;0.43;;;24.40;99.90;;;;;;5123165;28;20707;-75
2023/06/06 11:43:12;;;;;;;0.50;0.30;;;24.80;99.90;;;;;;5123592;28;20128;-75
2023/06/06 11:45:39;;;;;;;2.10;1.35;;;25.20;99.90;;;;;;5122744;28;20622;-75
2023/06/06 11:48:25;;;;;;;1.35;0.35;;;25.80;99.90;;;;;;5103868;28;20059;-74
2023/06/06 11:50:51;;;;;;;0.98;0.77;;;26.30;99.90;;;;;;5122800;28;20054;-73
2023/06/06 11:53:29;;;;;;;1.45;0.73;;;27.20;99.90;;;;;;5122782;28;20039;-74
2023/06/06 11:55:55;;;;;;;0.88;0.52;;;27.10;99.90;;;;;;5122693;28;20058;-76
2023/06/06 11:58:21;;;;;;;1.45;1.02;;;26.80;99.90;;;;;;5122239;27;20036;-76
2023/06/06 12:00:47;;;;;;;0.43;0.43;;;26.70;99.90;;;;;;5122401;28;20047;-76
2023/06/06 12:03:17;;;;;;;0.30;0.30;;;26.40;99.90;;;;;;5104193;28;20043;-76
2023/06/06 12:05:42;;;;;;;1.85;1.15;;;27.00;99.90;;;;;;5122708;28;20047;-76
2023/06/06 12:08:08;;;;;;;2.28;1.30;;;27.20;99.90;;;;;;5122409;28;20051;-76
2023/06/06 12:10:34;;;;;;;0.68;0.63;;;27.10;99.90;;;;;;5121122;28;20050;-76
2023/06/06 12:13:00;;;;;;;1.85;0.90;;;27.20;99.90;;;;;;5123410;27;20055;-76
2023/06/06 12:15:47;;;;;;;0.32;0.30;;;26.90;99.90;;;;;;5126420;27;20047;-76
2023/06/06 12:18:13;;;;;;;0.55;0.45;;;27.30;99.90;;;;;;5126453;27;20049;-76
2023/06/06 12:20:39;;;;;;;0.55;0.45;;;27.80;99.90;;;;;;5126198;27;20051;-76
2023/06/06 12:23:04;;;;;;;0.22;0.22;;;27.50;99.90;;;;;;5126330;27;20051;-76
2023/06/06 12:25:30;;;;;;;0.30;0.15;;;27.50;99.90;;;;;;5126847;27;20092;-76
2023/06/06 12:28:10;;;;;;;1.42;0.52;;;27.60;99.90;;;;;;5126049;27;20099;-74
2023/06/06 12:30:36;;;;;;;1.23;0.63;;;27.60;99.90;;;;;;5126350;27;20549;-74
2023/06/06 12:33:02;;;;;;;0.85;0.63;;;27.80;99.90;;;;;;5126351;27;20063;-74
2023/06/06 12:35:28;;;;;;;1.33;0.93;;;27.70;99.90;;;;;;5126170;27;20047;-74
2023/06/06 12:37:55;;;;;;;1.15;0.43;;;27.60;99.90;;;;;;5126108;27;20397;-74
2023/06/06 12:40:23;;;;;;;1.67;1.33;;;27.30;99.90;;;;;;5125712;27;20664;-74
2023/06/06 12:42:53;;;;;;;0.90;0.70;;;27.40;99.90;;;;;;5126265;27;20236;-74
2023/06/06 12:45:20;;;;;;;0.57;0.57;;;27.90;99.90;;;;;;5126216;27;20477;-74
2023/06/06 12:47:53;;;;;;;0.45;0.38;;;27.30;99.90;;;;;;5125965;27;20078;-74
2023/06/06 12:50:20;;;;;;;2.00;0.80;;;27.30;99.90;;;;;;5125720;27;20130;-74
2023/06/06 12:52:46;;;;;;;2.00;0.47;;;27.70;99.90;;;;;;5125798;27;20054;-74
2023/06/06 12:55:12;;;;;;;0.38;0.35;;;28.40;99.90;;;;;;5125727;27;20039;-74